Shinkomaru No.8 — JK5142 — position and weather

sailwx.info

Track history (hours):
 
Tides and Currents Weather Stations Pressure Air Temp Water Temp Dewpoint Dewpoint Depression Visibility Wind Speed Wind Dir Waves Ship Positions

Shinkomaru No.8

Last reported at 2014-Oct-23 22:33 UTC. Time now 2014-Nov-01 04:09 UTC.
Position N 35°12' E 139°46'.
Warning: this ship's position is 8 days out of date.

Length 61 m; draft 3.3 m.

Type: Tanker. MMSI: 431400035.

Date/timePositionNaut miles runAvg speedWind from/ knotsBaromVisibWave heightAir tempDewpointWater temp
2014-Oct-23 22:33N 35°12' E 139°46'1312.8
2014-Oct-23 21:34N 35°24' E 139°43'11 4.8
2014-Oct-23 19:20N 35°28' E 139°55'0 0.0
2014-Oct-23 02:26N 35°28' E 139°55'0 0.0
2014-Oct-22 17:20N 35°28' E 139°55'0 0.0
2014-Oct-22 16:32N 35°28' E 139°55'0 0.0
2014-Oct-22 15:20N 35°28' E 139°55'0 0.0
2014-Oct-22 14:32N 35°28' E 139°55'0 0.0
2014-Oct-22 06:14N 35°28' E 139°55'0 0.0
2014-Oct-22 00:20N 35°28' E 139°55'0 0.0
2014-Oct-21 20:29N 35°28' E 139°55'0 0.0
2014-Oct-21 19:23N 35°28' E 139°55'0 0.0
2014-Oct-21 18:29N 35°28' E 139°55'0 0.0
2014-Oct-21 17:29N 35°28' E 139°55'0 0.0
2014-Oct-21 16:32N 35°28' E 139°55'0 0.0
2014-Oct-21 15:23N 35°28' E 139°55'0 0.0
2014-Oct-21 12:29N 35°28' E 139°55'3 1.3
2014-Oct-21 10:20N 35°28' E 139°52'3 3.6
2014-Oct-21 09:33N 35°30' E 139°55'1 0.2
2014-Oct-21 03:15N 35°29' E 139°56'1 1.1
2014-Oct-21 02:33N 35°29' E 139°55'0 0.0
2014-Oct-21 00:33N 35°29' E 139°55'7 7.5
2014-Oct-20 23:33N 35°25' E 139°47'1110.7
2014-Oct-20 22:33N 35°14' E 139°47'  
2014-Oct-14 05:33N 35°14' E 139°46'1111.1
2014-Oct-14 04:33N 35°25' E 139°44'8 6.5
2014-Oct-14 03:21N 35°22' E 139°53'0 0.0
2014-Oct-14 02:33N 35°22' E 139°53'0 0.0
2014-Oct-14 00:33N 35°22' E 139°53'  
Track history (hours):
 
Tides and Currents Weather Stations Pressure Air Temp Water Temp Dewpoint Dewpoint Depression Visibility Wind Speed Wind Dir Waves Ship Positions

Shinkomaru No.8

Last reported at 2014-Oct-23 22:33 UTC. Time now 2014-Nov-01 04:09 UTC.
Position N 35°12' E 139°46'.
Warning: this ship's position is 8 days out of date.

Length 61 m; draft 3.3 m.

Type: Tanker. MMSI: 431400035.

Date/timePositionNaut miles runAvg speedWind from/ knotsBaromVisibWave heightAir tempDewpointWater temp
2014-Oct-23 22:33N 35°12' E 139°46'1312.8
2014-Oct-23 21:34N 35°24' E 139°43'11 4.8
2014-Oct-23 19:20N 35°28' E 139°55'0 0.0
2014-Oct-23 02:26N 35°28' E 139°55'0 0.0
2014-Oct-22 17:20N 35°28' E 139°55'0 0.0
2014-Oct-22 16:32N 35°28' E 139°55'0 0.0
2014-Oct-22 15:20N 35°28' E 139°55'0 0.0
2014-Oct-22 14:32N 35°28' E 139°55'0 0.0
2014-Oct-22 06:14N 35°28' E 139°55'0 0.0
2014-Oct-22 00:20N 35°28' E 139°55'0 0.0
2014-Oct-21 20:29N 35°28' E 139°55'0 0.0
2014-Oct-21 19:23N 35°28' E 139°55'0 0.0
2014-Oct-21 18:29N 35°28' E 139°55'0 0.0
2014-Oct-21 17:29N 35°28' E 139°55'0 0.0
2014-Oct-21 16:32N 35°28' E 139°55'0 0.0
2014-Oct-21 15:23N 35°28' E 139°55'0 0.0
2014-Oct-21 12:29N 35°28' E 139°55'3 1.3
2014-Oct-21 10:20N 35°28' E 139°52'3 3.6
2014-Oct-21 09:33N 35°30' E 139°55'1 0.2
2014-Oct-21 03:15N 35°29' E 139°56'1 1.1
2014-Oct-21 02:33N 35°29' E 139°55'0 0.0
2014-Oct-21 00:33N 35°29' E 139°55'7 7.5
2014-Oct-20 23:33N 35°25' E 139°47'1110.7
2014-Oct-20 22:33N 35°14' E 139°47'  
2014-Oct-14 05:33N 35°14' E 139°46'1111.1
2014-Oct-14 04:33N 35°25' E 139°44'8 6.5
2014-Oct-14 03:21N 35°22' E 139°53'0 0.0
2014-Oct-14 02:33N 35°22' E 139°53'0 0.0
2014-Oct-14 00:33N 35°22' E 139°53'  

Dump ship's entire track history